sensor_id;sensor_type;location;lat;lon;timestamp;P1;durP1;ratioP1;P2;durP2;ratioP2
10991;SDS011;5549;47.028;15.514;2024-01-10T00:01:10;5.57;;;1.33;;
10991;SDS011;5549;47.028;15.514;2024-01-10T00:03:41;4.65;;;1.52;;
10991;SDS011;5549;47.028;15.514;2024-01-10T00:06:09;4.13;;;1.83;;
10991;SDS011;5549;47.028;15.514;2024-01-10T00:08:37;3.42;;;1.23;;
10991;SDS011;5549;47.028;15.514;2024-01-10T00:11:10;4.05;;;1.35;;
10991;SDS011;5549;47.028;15.514;2024-01-10T00:13:37;3.83;;;1.25;;
10991;SDS011;5549;47.028;15.514;2024-01-10T00:16:11;3.67;;;1.27;;
10991;SDS011;5549;47.028;15.514;2024-01-10T00:18:39;4.95;;;1.40;;
10991;SDS011;5549;47.028;15.514;2024-01-10T00:21:09;4.80;;;1.20;;
10991;SDS011;5549;47.028;15.514;2024-01-10T00:23:37;4.05;;;1.20;;
10991;SDS011;5549;47.028;15.514;2024-01-10T00:26:04;4.35;;;1.17;;
10991;SDS011;5549;47.028;15.514;2024-01-10T00:28:31;4.72;;;1.30;;
10991;SDS011;5549;47.028;15.514;2024-01-10T00:30:58;3.83;;;1.35;;
10991;SDS011;5549;47.028;15.514;2024-01-10T00:33:26;7.95;;;1.38;;
10991;SDS011;5549;47.028;15.514;2024-01-10T00:35:55;2.78;;;0.85;;
10991;SDS011;5549;47.028;15.514;2024-01-10T00:38:23;3.42;;;1.05;;
10991;SDS011;5549;47.028;15.514;2024-01-10T00:40:50;4.63;;;1.08;;
10991;SDS011;5549;47.028;15.514;2024-01-10T00:43:18;5.38;;;1.70;;
10991;SDS011;5549;47.028;15.514;2024-01-10T00:45:46;3.85;;;1.42;;
10991;SDS011;5549;47.028;15.514;2024-01-10T00:48:13;5.53;;;1.48;;
10991;SDS011;5549;47.028;15.514;2024-01-10T00:50:42;5.40;;;1.50;;
10991;SDS011;5549;47.028;15.514;2024-01-10T00:53:12;4.18;;;1.20;;
10991;SDS011;5549;47.028;15.514;2024-01-10T00:55:40;5.15;;;1.25;;
10991;SDS011;5549;47.028;15.514;2024-01-10T00:58:07;4.40;;;1.33;;
10991;SDS011;5549;47.028;15.514;2024-01-10T01:00:35;4.18;;;1.40;;
10991;SDS011;5549;47.028;15.514;2024-01-10T01:03:03;5.30;;;0.95;;
10991;SDS011;5549;47.028;15.514;2024-01-10T01:05:33;6.22;;;1.52;;
10991;SDS011;5549;47.028;15.514;2024-01-10T01:08:01;4.55;;;1.25;;
10991;SDS011;5549;47.028;15.514;2024-01-10T01:10:30;6.90;;;1.45;;
10991;SDS011;5549;47.028;15.514;2024-01-10T01:12:58;6.95;;;1.40;;
10991;SDS011;5549;47.028;15.514;2024-01-10T01:15:26;7.40;;;1.42;;
10991;SDS011;5549;47.028;15.514;2024-01-10T01:17:57;3.42;;;1.20;;
10991;SDS011;5549;47.028;15.514;2024-01-10T01:20:25;6.07;;;1.40;;
10991;SDS011;5549;47.028;15.514;2024-01-10T01:22:53;3.55;;;1.10;;
10991;SDS011;5549;47.028;15.514;2024-01-10T01:25:20;3.17;;;1.17;;
10991;SDS011;5549;47.028;15.514;2024-01-10T01:27:49;5.75;;;1.23;;
10991;SDS011;5549;47.028;15.514;2024-01-10T01:30:19;5.38;;;1.42;;
10991;SDS011;5549;47.028;15.514;2024-01-10T01:32:48;7.07;;;1.75;;
10991;SDS011;5549;47.028;15.514;2024-01-10T01:35:15;5.00;;;1.52;;
10991;SDS011;5549;47.028;15.514;2024-01-10T01:37:47;3.90;;;1.20;;
10991;SDS011;5549;47.028;15.514;2024-01-10T01:40:15;5.82;;;1.77;;
10991;SDS011;5549;47.028;15.514;2024-01-10T01:42:43;4.53;;;1.13;;
10991;SDS011;5549;47.028;15.514;2024-01-10T01:45:13;4.32;;;1.35;;
10991;SDS011;5549;47.028;15.514;2024-01-10T01:47:41;4.95;;;1.27;;
10991;SDS011;5549;47.028;15.514;2024-01-10T01:50:10;3.83;;;1.20;;
10991;SDS011;5549;47.028;15.514;2024-01-10T01:52:37;4.50;;;1.13;;
10991;SDS011;5549;47.028;15.514;2024-01-10T01:55:06;4.57;;;1.42;;
10991;SDS011;5549;47.028;15.514;2024-01-10T01:57:35;4.05;;;1.38;;
10991;SDS011;5549;47.028;15.514;2024-01-10T02:00:03;3.95;;;1.17;;
10991;SDS011;5549;47.028;15.514;2024-01-10T02:02:35;6.07;;;1.60;;
10991;SDS011;5549;47.028;15.514;2024-01-10T02:05:03;5.10;;;1.20;;
10991;SDS011;5549;47.028;15.514;2024-01-10T02:07:31;3.90;;;1.17;;
10991;SDS011;5549;47.028;15.514;2024-01-10T02:09:58;3.85;;;1.33;;
10991;SDS011;5549;47.028;15.514;2024-01-10T02:12:26;5.10;;;1.40;;
10991;SDS011;5549;47.028;15.514;2024-01-10T02:14:54;5.07;;;1.33;;
10991;SDS011;5549;47.028;15.514;2024-01-10T02:17:24;5.38;;;1.48;;
10991;SDS011;5549;47.028;15.514;2024-01-10T02:22:48;7.82;;;3.03;;
10991;SDS011;5549;47.028;15.514;2024-01-10T02:25:20;7.43;;;2.30;;
10991;SDS011;5549;47.028;15.514;2024-01-10T02:27:47;5.35;;;1.67;;
10991;SDS011;5549;47.028;15.514;2024-01-10T02:30:16;6.20;;;1.90;;
10991;SDS011;5549;47.028;15.514;2024-01-10T02:32:43;6.03;;;1.25;;
10991;SDS011;5549;47.028;15.514;2024-01-10T02:35:13;5.03;;;1.35;;
10991;SDS011;5549;47.028;15.514;2024-01-10T02:37:41;6.28;;;1.98;;
10991;SDS011;5549;47.028;15.514;2024-01-10T02:40:08;5.28;;;1.55;;
10991;SDS011;5549;47.028;15.514;2024-01-10T02:42:38;5.72;;;1.58;;
10991;SDS011;5549;47.028;15.514;2024-01-10T02:45:06;6.05;;;1.65;;
10991;SDS011;5549;47.028;15.514;2024-01-10T02:47:37;4.07;;;1.30;;
10991;SDS011;5549;47.028;15.514;2024-01-10T02:50:05;5.85;;;1.52;;
10991;SDS011;5549;47.028;15.514;2024-01-10T02:52:36;4.85;;;1.55;;
10991;SDS011;5549;47.028;15.514;2024-01-10T02:55:03;3.20;;;1.17;;
10991;SDS011;5549;47.028;15.514;2024-01-10T02:57:34;6.00;;;2.00;;
10991;SDS011;5549;47.028;15.514;2024-01-10T03:00:04;4.53;;;1.52;;
10991;SDS011;5549;47.028;15.514;2024-01-10T03:02:33;4.45;;;1.58;;
10991;SDS011;5549;47.028;15.514;2024-01-10T03:05:01;4.55;;;1.23;;
10991;SDS011;5549;47.028;15.514;2024-01-10T03:07:29;6.88;;;1.48;;
10991;SDS011;5549;47.028;15.514;2024-01-10T03:09:56;5.15;;;1.48;;
10991;SDS011;5549;47.028;15.514;2024-01-10T03:12:24;4.35;;;1.35;;
10991;SDS011;5549;47.028;15.514;2024-01-10T03:14:53;4.95;;;1.20;;
10991;SDS011;5549;47.028;15.514;2024-01-10T03:17:24;5.20;;;1.52;;
10991;SDS011;5549;47.028;15.514;2024-01-10T03:19:52;5.82;;;1.52;;
10991;SDS011;5549;47.028;15.514;2024-01-10T03:22:20;4.35;;;1.40;;
10991;SDS011;5549;47.028;15.514;2024-01-10T03:24:48;5.30;;;1.10;;
10991;SDS011;5549;47.028;15.514;2024-01-10T03:27:16;4.35;;;1.75;;
10991;SDS011;5549;47.028;15.514;2024-01-10T03:29:45;6.70;;;1.70;;
10991;SDS011;5549;47.028;15.514;2024-01-10T03:32:12;3.13;;;0.88;;
10991;SDS011;5549;47.028;15.514;2024-01-10T03:34:42;4.38;;;1.23;;
10991;SDS011;5549;47.028;15.514;2024-01-10T03:37:10;6.00;;;1.85;;
10991;SDS011;5549;47.028;15.514;2024-01-10T03:39:37;5.40;;;1.25;;
10991;SDS011;5549;47.028;15.514;2024-01-10T03:42:05;7.40;;;1.50;;
10991;SDS011;5549;47.028;15.514;2024-01-10T03:44:33;5.70;;;1.42;;
10991;SDS011;5549;47.028;15.514;2024-01-10T03:47:01;4.25;;;0.93;;
10991;SDS011;5549;47.028;15.514;2024-01-10T03:49:29;4.93;;;1.58;;
10991;SDS011;5549;47.028;15.514;2024-01-10T03:51:58;4.63;;;1.58;;
10991;SDS011;5549;47.028;15.514;2024-01-10T03:54:26;6.03;;;1.98;;
10991;SDS011;5549;47.028;15.514;2024-01-10T03:56:53;2.42;;;0.93;;
10991;SDS011;5549;47.028;15.514;2024-01-10T03:59:21;4.20;;;1.05;;
10991;SDS011;5549;47.028;15.514;2024-01-10T04:01:48;5.55;;;1.67;;
10991;SDS011;5549;47.028;15.514;2024-01-10T04:04:16;5.30;;;1.13;;
10991;SDS011;5549;47.028;15.514;2024-01-10T04:06:44;7.55;;;1.95;;
10991;SDS011;5549;47.028;15.514;2024-01-10T04:09:16;6.45;;;1.50;;
10991;SDS011;5549;47.028;15.514;2024-01-10T04:11:44;4.60;;;1.88;;
10991;SDS011;5549;47.028;15.514;2024-01-10T04:14:12;4.43;;;1.30;;
10991;SDS011;5549;47.028;15.514;2024-01-10T04:16:40;4.85;;;1.02;;
10991;SDS011;5549;47.028;15.514;2024-01-10T04:19:08;6.38;;;2.20;;
10991;SDS011;5549;47.028;15.514;2024-01-10T04:21:35;7.70;;;1.80;;
10991;SDS011;5549;47.028;15.514;2024-01-10T04:24:03;6.97;;;1.73;;
10991;SDS011;5549;47.028;15.514;2024-01-10T04:26:34;5.13;;;2.28;;
10991;SDS011;5549;47.028;15.514;2024-01-10T04:29:02;8.93;;;2.22;;
10991;SDS011;5549;47.028;15.514;2024-01-10T04:31:29;7.80;;;2.70;;
10991;SDS011;5549;47.028;15.514;2024-01-10T04:33:57;8.40;;;2.83;;
10991;SDS011;5549;47.028;15.514;2024-01-10T04:36:24;6.63;;;2.50;;
10991;SDS011;5549;47.028;15.514;2024-01-10T04:38:52;6.72;;;1.85;;
10991;SDS011;5549;47.028;15.514;2024-01-10T04:41:19;3.95;;;1.60;;
10991;SDS011;5549;47.028;15.514;2024-01-10T04:43:48;5.82;;;1.65;;
10991;SDS011;5549;47.028;15.514;2024-01-10T04:46:16;6.75;;;1.73;;
10991;SDS011;5549;47.028;15.514;2024-01-10T04:48:44;11.23;;;3.80;;
10991;SDS011;5549;47.028;15.514;2024-01-10T04:51:11;12.32;;;3.45;;
10991;SDS011;5549;47.028;15.514;2024-01-10T04:53:40;8.48;;;2.97;;
10991;SDS011;5549;47.028;15.514;2024-01-10T04:56:07;5.75;;;2.05;;
10991;SDS011;5549;47.028;15.514;2024-01-10T04:58:35;9.40;;;2.45;;
10991;SDS011;5549;47.028;15.514;2024-01-10T05:01:04;7.05;;;2.50;;
10991;SDS011;5549;47.028;15.514;2024-01-10T05:03:34;7.70;;;2.25;;
10991;SDS011;5549;47.028;15.514;2024-01-10T05:06:01;9.20;;;1.77;;
10991;SDS011;5549;47.028;15.514;2024-01-10T05:08:30;4.65;;;1.35;;
10991;SDS011;5549;47.028;15.514;2024-01-10T05:10:57;4.63;;;1.52;;
10991;SDS011;5549;47.028;15.514;2024-01-10T05:13:25;3.90;;;1.52;;
10991;SDS011;5549;47.028;15.514;2024-01-10T05:15:53;6.47;;;1.73;;
10991;SDS011;5549;47.028;15.514;2024-01-10T05:18:22;6.45;;;2.20;;
10991;SDS011;5549;47.028;15.514;2024-01-10T05:20:49;5.18;;;1.63;;
10991;SDS011;5549;47.028;15.514;2024-01-10T05:23:17;3.65;;;1.60;;
10991;SDS011;5549;47.028;15.514;2024-01-10T05:25:44;8.05;;;2.53;;
10991;SDS011;5549;47.028;15.514;2024-01-10T05:28:12;6.50;;;2.03;;
10991;SDS011;5549;47.028;15.514;2024-01-10T05:30:39;5.53;;;1.80;;
10991;SDS011;5549;47.028;15.514;2024-01-10T05:33:08;4.85;;;1.70;;
10991;SDS011;5549;47.028;15.514;2024-01-10T05:35:40;4.78;;;1.33;;
10991;SDS011;5549;47.028;15.514;2024-01-10T05:38:09;5.28;;;1.70;;
10991;SDS011;5549;47.028;15.514;2024-01-10T05:40:36;6.85;;;1.77;;
10991;SDS011;5549;47.028;15.514;2024-01-10T05:43:04;9.15;;;1.67;;
10991;SDS011;5549;47.028;15.514;2024-01-10T05:45:32;6.40;;;1.98;;
10991;SDS011;5549;47.028;15.514;2024-01-10T05:48:00;5.50;;;1.58;;
10991;SDS011;5549;47.028;15.514;2024-01-10T05:50:28;6.90;;;1.92;;
10991;SDS011;5549;47.028;15.514;2024-01-10T05:52:57;5.25;;;1.60;;
10991;SDS011;5549;47.028;15.514;2024-01-10T05:55:24;3.95;;;1.42;;
10991;SDS011;5549;47.028;15.514;2024-01-10T05:57:52;5.63;;;1.40;;
10991;SDS011;5549;47.028;15.514;2024-01-10T06:00:23;4.82;;;1.58;;
10991;SDS011;5549;47.028;15.514;2024-01-10T06:02:51;7.90;;;1.50;;
10991;SDS011;5549;47.028;15.514;2024-01-10T06:05:18;4.45;;;1.58;;
10991;SDS011;5549;47.028;15.514;2024-01-10T06:07:47;7.78;;;2.03;;
10991;SDS011;5549;47.028;15.514;2024-01-10T06:10:16;7.40;;;1.67;;
10991;SDS011;5549;47.028;15.514;2024-01-10T06:12:46;5.65;;;1.52;;
10991;SDS011;5549;47.028;15.514;2024-01-10T06:15:14;7.15;;;2.03;;
10991;SDS011;5549;47.028;15.514;2024-01-10T06:17:42;5.70;;;2.30;;
10991;SDS011;5549;47.028;15.514;2024-01-10T06:20:09;7.25;;;2.25;;
10991;SDS011;5549;47.028;15.514;2024-01-10T06:22:37;6.68;;;2.10;;
10991;SDS011;5549;47.028;15.514;2024-01-10T06:25:05;6.25;;;1.13;;
10991;SDS011;5549;47.028;15.514;2024-01-10T06:27:35;4.97;;;1.63;;
10991;SDS011;5549;47.028;15.514;2024-01-10T06:30:03;6.90;;;1.58;;
10991;SDS011;5549;47.028;15.514;2024-01-10T06:32:33;6.00;;;1.80;;
10991;SDS011;5549;47.028;15.514;2024-01-10T06:35:00;3.53;;;1.27;;
10991;SDS011;5549;47.028;15.514;2024-01-10T06:37:33;9.13;;;2.00;;
10991;SDS011;5549;47.028;15.514;2024-01-10T06:40:00;3.47;;;1.20;;
10991;SDS011;5549;47.028;15.514;2024-01-10T06:42:30;5.60;;;2.05;;
10991;SDS011;5549;47.028;15.514;2024-01-10T06:45:01;4.13;;;1.75;;
10991;SDS011;5549;47.028;15.514;2024-01-10T06:50:01;4.95;;;1.33;;
10991;SDS011;5549;47.028;15.514;2024-01-10T06:52:30;5.93;;;1.88;;
10991;SDS011;5549;47.028;15.514;2024-01-10T06:54:58;6.20;;;2.10;;
10991;SDS011;5549;47.028;15.514;2024-01-10T06:57:28;7.20;;;1.88;;
10991;SDS011;5549;47.028;15.514;2024-01-10T06:59:55;5.15;;;2.28;;
10991;SDS011;5549;47.028;15.514;2024-01-10T07:02:25;4.43;;;1.58;;
10991;SDS011;5549;47.028;15.514;2024-01-10T07:04:52;6.10;;;1.70;;
10991;SDS011;5549;47.028;15.514;2024-01-10T07:07:22;4.63;;;1.88;;
10991;SDS011;5549;47.028;15.514;2024-01-10T07:09:50;7.35;;;2.15;;
10991;SDS011;5549;47.028;15.514;2024-01-10T07:12:17;7.57;;;2.15;;
10991;SDS011;5549;47.028;15.514;2024-01-10T07:14:45;7.55;;;1.98;;
10991;SDS011;5549;47.028;15.514;2024-01-10T07:17:13;8.75;;;2.33;;
10991;SDS011;5549;47.028;15.514;2024-01-10T07:19:42;7.97;;;2.58;;
10991;SDS011;5549;47.028;15.514;2024-01-10T07:22:11;6.13;;;2.28;;
10991;SDS011;5549;47.028;15.514;2024-01-10T07:24:39;4.78;;;1.90;;
10991;SDS011;5549;47.028;15.514;2024-01-10T07:27:06;7.28;;;2.78;;
10991;SDS011;5549;47.028;15.514;2024-01-10T07:29:34;7.82;;;2.75;;
10991;SDS011;5549;47.028;15.514;2024-01-10T07:32:02;8.65;;;2.75;;
10991;SDS011;5549;47.028;15.514;2024-01-10T07:34:30;7.55;;;2.70;;
10991;SDS011;5549;47.028;15.514;2024-01-10T07:36:59;7.30;;;3.20;;
10991;SDS011;5549;47.028;15.514;2024-01-10T07:39:26;7.72;;;2.97;;
10991;SDS011;5549;47.028;15.514;2024-01-10T07:41:54;10.00;;;3.28;;
10991;SDS011;5549;47.028;15.514;2024-01-10T07:44:24;8.82;;;2.92;;
10991;SDS011;5549;47.028;15.514;2024-01-10T07:46:51;7.85;;;3.10;;
10991;SDS011;5549;47.028;15.514;2024-01-10T07:49:20;8.50;;;2.60;;
10991;SDS011;5549;47.028;15.514;2024-01-10T07:51:49;9.10;;;3.13;;
10991;SDS011;5549;47.028;15.514;2024-01-10T07:54:18;9.13;;;2.85;;
10991;SDS011;5549;47.028;15.514;2024-01-10T07:56:45;8.20;;;2.72;;
10991;SDS011;5549;47.028;15.514;2024-01-10T07:59:15;7.15;;;2.67;;
10991;SDS011;5549;47.028;15.514;2024-01-10T08:01:43;7.07;;;2.90;;
10991;SDS011;5549;47.028;15.514;2024-01-10T08:04:24;7.78;;;2.75;;
10991;SDS011;5549;47.028;15.514;2024-01-10T08:06:52;10.43;;;3.40;;
10991;SDS011;5549;47.028;15.514;2024-01-10T08:09:22;9.15;;;3.05;;
10991;SDS011;5549;47.028;15.514;2024-01-10T08:11:50;8.45;;;3.17;;
10991;SDS011;5549;47.028;15.514;2024-01-10T08:14:17;8.48;;;3.25;;
10991;SDS011;5549;47.028;15.514;2024-01-10T08:16:45;9.23;;;3.20;;
10991;SDS011;5549;47.028;15.514;2024-01-10T08:19:13;10.32;;;3.72;;
10991;SDS011;5549;47.028;15.514;2024-01-10T08:21:41;11.70;;;3.38;;
10991;SDS011;5549;47.028;15.514;2024-01-10T08:24:08;9.45;;;3.63;;
10991;SDS011;5549;47.028;15.514;2024-01-10T08:26:37;9.98;;;3.28;;
10991;SDS011;5549;47.028;15.514;2024-01-10T08:29:05;8.13;;;3.05;;
10991;SDS011;5549;47.028;15.514;2024-01-10T08:31:32;10.68;;;3.55;;
10991;SDS011;5549;47.028;15.514;2024-01-10T08:34:00;9.60;;;3.05;;
10991;SDS011;5549;47.028;15.514;2024-01-10T08:36:28;7.93;;;2.95;;
10991;SDS011;5549;47.028;15.514;2024-01-10T08:38:55;9.05;;;3.28;;
10991;SDS011;5549;47.028;15.514;2024-01-10T08:41:23;11.07;;;3.72;;
10991;SDS011;5549;47.028;15.514;2024-01-10T08:43:52;9.98;;;3.38;;
10991;SDS011;5549;47.028;15.514;2024-01-10T08:46:19;9.98;;;3.50;;
10991;SDS011;5549;47.028;15.514;2024-01-10T08:48:47;9.52;;;3.38;;
10991;SDS011;5549;47.028;15.514;2024-01-10T08:51:15;10.05;;;3.40;;
10991;SDS011;5549;47.028;15.514;2024-01-10T08:53:43;10.82;;;3.65;;
10991;SDS011;5549;47.028;15.514;2024-01-10T08:56:10;11.57;;;4.00;;
10991;SDS011;5549;47.028;15.514;2024-01-10T08:58:38;9.57;;;3.95;;
10991;SDS011;5549;47.028;15.514;2024-01-10T09:01:07;10.48;;;3.75;;
10991;SDS011;5549;47.028;15.514;2024-01-10T09:03:35;11.20;;;3.83;;
10991;SDS011;5549;47.028;15.514;2024-01-10T09:06:06;11.35;;;3.97;;
10991;SDS011;5549;47.028;15.514;2024-01-10T09:08:36;8.20;;;3.22;;
10991;SDS011;5549;47.028;15.514;2024-01-10T09:11:04;9.40;;;3.50;;
10991;SDS011;5549;47.028;15.514;2024-01-10T09:13:32;8.13;;;3.42;;
10991;SDS011;5549;47.028;15.514;2024-01-10T09:16:00;9.02;;;3.63;;
10991;SDS011;5549;47.028;15.514;2024-01-10T09:18:30;8.23;;;3.38;;
10991;SDS011;5549;47.028;15.514;2024-01-10T09:20:57;9.13;;;3.10;;
10991;SDS011;5549;47.028;15.514;2024-01-10T09:23:25;8.82;;;3.78;;
10991;SDS011;5549;47.028;15.514;2024-01-10T09:25:53;10.48;;;3.42;;
10991;SDS011;5549;47.028;15.514;2024-01-10T09:28:21;9.88;;;3.97;;
10991;SDS011;5549;47.028;15.514;2024-01-10T09:30:49;11.20;;;3.50;;
10991;SDS011;5549;47.028;15.514;2024-01-10T09:33:17;8.88;;;3.90;;
10991;SDS011;5549;47.028;15.514;2024-01-10T09:35:46;8.95;;;2.97;;
10991;SDS011;5549;47.028;15.514;2024-01-10T09:38:13;7.45;;;3.13;;
10991;SDS011;5549;47.028;15.514;2024-01-10T09:40:44;8.95;;;2.65;;
10991;SDS011;5549;47.028;15.514;2024-01-10T09:43:12;8.70;;;3.28;;
10991;SDS011;5549;47.028;15.514;2024-01-10T09:45:42;7.20;;;2.67;;
10991;SDS011;5549;47.028;15.514;2024-01-10T09:48:13;7.00;;;2.78;;
10991;SDS011;5549;47.028;15.514;2024-01-10T09:50:43;8.52;;;3.50;;
10991;SDS011;5549;47.028;15.514;2024-01-10T09:53:20;7.22;;;2.42;;
10991;SDS011;5549;47.028;15.514;2024-01-10T09:55:50;9.15;;;3.30;;
10991;SDS011;5549;47.028;15.514;2024-01-10T09:58:17;9.18;;;3.33;;
10991;SDS011;5549;47.028;15.514;2024-01-10T10:00:48;8.80;;;3.05;;
10991;SDS011;5549;47.028;15.514;2024-01-10T10:03:15;8.05;;;3.20;;
10991;SDS011;5549;47.028;15.514;2024-01-10T10:05:47;6.72;;;2.50;;
10991;SDS011;5549;47.028;15.514;2024-01-10T10:08:14;11.30;;;3.15;;
10991;SDS011;5549;47.028;15.514;2024-01-10T10:13:23;8.88;;;3.47;;
10991;SDS011;5549;47.028;15.514;2024-01-10T10:15:59;11.88;;;4.18;;
10991;SDS011;5549;47.028;15.514;2024-01-10T10:18:29;9.60;;;4.13;;
10991;SDS011;5549;47.028;15.514;2024-01-10T10:21:07;8.88;;;3.92;;
10991;SDS011;5549;47.028;15.514;2024-01-10T10:23:37;9.18;;;3.42;;
10991;SDS011;5549;47.028;15.514;2024-01-10T10:26:13;8.57;;;3.40;;
10991;SDS011;5549;47.028;15.514;2024-01-10T10:28:45;10.35;;;3.60;;
10991;SDS011;5549;47.028;15.514;2024-01-10T10:31:17;7.40;;;3.58;;
10991;SDS011;5549;47.028;15.514;2024-01-10T10:33:48;8.43;;;3.25;;
10991;SDS011;5549;47.028;15.514;2024-01-10T10:36:18;7.85;;;3.10;;
10991;SDS011;5549;47.028;15.514;2024-01-10T10:38:46;10.82;;;3.40;;
10991;SDS011;5549;47.028;15.514;2024-01-10T10:41:15;9.15;;;4.00;;
10991;SDS011;5549;47.028;15.514;2024-01-10T10:43:45;11.10;;;3.42;;
10991;SDS011;5549;47.028;15.514;2024-01-10T10:46:13;13.35;;;3.72;;
10991;SDS011;5549;47.028;15.514;2024-01-10T10:48:41;10.80;;;4.13;;
10991;SDS011;5549;47.028;15.514;2024-01-10T10:51:10;12.65;;;3.75;;
10991;SDS011;5549;47.028;15.514;2024-01-10T10:53:43;8.43;;;3.58;;
10991;SDS011;5549;47.028;15.514;2024-01-10T10:56:12;9.70;;;4.35;;
10991;SDS011;5549;47.028;15.514;2024-01-10T10:58:42;8.88;;;4.10;;
10991;SDS011;5549;47.028;15.514;2024-01-10T11:01:11;10.07;;;4.25;;
10991;SDS011;5549;47.028;15.514;2024-01-10T11:03:41;9.95;;;4.30;;
10991;SDS011;5549;47.028;15.514;2024-01-10T11:06:10;11.07;;;4.68;;
10991;SDS011;5549;47.028;15.514;2024-01-10T11:08:38;9.35;;;3.95;;
10991;SDS011;5549;47.028;15.514;2024-01-10T11:11:22;8.38;;;3.95;;
10991;SDS011;5549;47.028;15.514;2024-01-10T11:14:12;10.27;;;3.72;;
10991;SDS011;5549;47.028;15.514;2024-01-10T11:20:11;8.68;;;4.05;;
10991;SDS011;5549;47.028;15.514;2024-01-10T11:22:53;8.90;;;3.60;;
10991;SDS011;5549;47.028;15.514;2024-01-10T11:25:50;8.50;;;3.38;;
10991;SDS011;5549;47.028;15.514;2024-01-10T11:28:18;7.57;;;3.28;;
10991;SDS011;5549;47.028;15.514;2024-01-10T11:30:50;11.45;;;4.85;;
10991;SDS011;5549;47.028;15.514;2024-01-10T11:33:22;11.23;;;4.40;;
10991;SDS011;5549;47.028;15.514;2024-01-10T11:36:09;7.25;;;2.67;;
10991;SDS011;5549;47.028;15.514;2024-01-10T11:38:41;9.02;;;3.83;;
10991;SDS011;5549;47.028;15.514;2024-01-10T11:41:19;9.75;;;3.88;;
10991;SDS011;5549;47.028;15.514;2024-01-10T11:46:59;10.05;;;3.90;;
10991;SDS011;5549;47.028;15.514;2024-01-10T11:49:27;11.05;;;4.15;;
10991;SDS011;5549;47.028;15.514;2024-01-10T11:51:55;9.65;;;3.55;;
10991;SDS011;5549;47.028;15.514;2024-01-10T11:54:37;6.68;;;2.83;;
10991;SDS011;5549;47.028;15.514;2024-01-10T11:57:18;8.70;;;3.50;;
10991;SDS011;5549;47.028;15.514;2024-01-10T11:59:50;7.80;;;3.40;;
10991;SDS011;5549;47.028;15.514;2024-01-10T12:02:21;7.97;;;3.55;;
10991;SDS011;5549;47.028;15.514;2024-01-10T12:04:51;7.53;;;3.42;;
10991;SDS011;5549;47.028;15.514;2024-01-10T12:07:20;8.75;;;3.40;;
10991;SDS011;5549;47.028;15.514;2024-01-10T12:09:49;8.73;;;3.08;;
10991;SDS011;5549;47.028;15.514;2024-01-10T12:12:18;7.53;;;3.40;;
10991;SDS011;5549;47.028;15.514;2024-01-10T12:14:46;10.93;;;2.95;;
10991;SDS011;5549;47.028;15.514;2024-01-10T12:17:13;6.40;;;2.42;;
10991;SDS011;5549;47.028;15.514;2024-01-10T12:19:41;6.47;;;2.30;;
10991;SDS011;5549;47.028;15.514;2024-01-10T12:22:10;6.68;;;2.30;;
10991;SDS011;5549;47.028;15.514;2024-01-10T12:24:42;7.82;;;2.50;;
10991;SDS011;5549;47.028;15.514;2024-01-10T12:27:11;8.15;;;3.08;;
10991;SDS011;5549;47.028;15.514;2024-01-10T12:29:43;6.40;;;2.60;;
10991;SDS011;5549;47.028;15.514;2024-01-10T12:32:16;7.90;;;2.78;;
10991;SDS011;5549;47.028;15.514;2024-01-10T12:34:45;10.50;;;3.10;;
10991;SDS011;5549;47.028;15.514;2024-01-10T12:37:12;7.43;;;3.00;;
10991;SDS011;5549;47.028;15.514;2024-01-10T12:39:40;8.27;;;2.75;;
10991;SDS011;5549;47.028;15.514;2024-01-10T12:42:08;5.88;;;2.22;;
10991;SDS011;5549;47.028;15.514;2024-01-10T12:44:45;4.90;;;1.70;;
10991;SDS011;5549;47.028;15.514;2024-01-10T12:47:17;5.00;;;2.22;;
10991;SDS011;5549;47.028;15.514;2024-01-10T12:49:46;5.15;;;2.05;;
10991;SDS011;5549;47.028;15.514;2024-01-10T12:52:13;5.97;;;2.10;;
10991;SDS011;5549;47.028;15.514;2024-01-10T12:54:41;5.47;;;2.13;;
10991;SDS011;5549;47.028;15.514;2024-01-10T12:57:09;5.50;;;1.77;;
10991;SDS011;5549;47.028;15.514;2024-01-10T12:59:39;5.53;;;1.80;;
10991;SDS011;5549;47.028;15.514;2024-01-10T13:02:08;2.38;;;1.00;;
10991;SDS011;5549;47.028;15.514;2024-01-10T13:04:35;4.88;;;1.83;;
10991;SDS011;5549;47.028;15.514;2024-01-10T13:07:03;5.13;;;2.35;;
10991;SDS011;5549;47.028;15.514;2024-01-10T13:09:30;3.67;;;1.02;;
10991;SDS011;5549;47.028;15.514;2024-01-10T13:11:58;4.82;;;1.45;;
10991;SDS011;5549;47.028;15.514;2024-01-10T13:14:28;3.28;;;1.27;;
10991;SDS011;5549;47.028;15.514;2024-01-10T13:16:56;2.90;;;1.00;;
10991;SDS011;5549;47.028;15.514;2024-01-10T13:19:28;3.60;;;1.17;;
10991;SDS011;5549;47.028;15.514;2024-01-10T13:21:55;4.50;;;1.88;;
10991;SDS011;5549;47.028;15.514;2024-01-10T13:24:23;9.02;;;3.85;;
10991;SDS011;5549;47.028;15.514;2024-01-10T13:26:50;4.82;;;1.70;;
10991;SDS011;5549;47.028;15.514;2024-01-10T13:29:18;6.55;;;1.70;;
10991;SDS011;5549;47.028;15.514;2024-01-10T13:31:45;4.30;;;1.38;;
10991;SDS011;5549;47.028;15.514;2024-01-10T13:34:14;5.53;;;2.00;;
10991;SDS011;5549;47.028;15.514;2024-01-10T13:36:43;3.25;;;1.02;;
10991;SDS011;5549;47.028;15.514;2024-01-10T13:39:11;4.90;;;1.63;;
10991;SDS011;5549;47.028;15.514;2024-01-10T13:41:40;5.70;;;1.75;;
10991;SDS011;5549;47.028;15.514;2024-01-10T13:44:08;6.18;;;2.03;;
10991;SDS011;5549;47.028;15.514;2024-01-10T13:46:35;4.97;;;1.55;;
10991;SDS011;5549;47.028;15.514;2024-01-10T13:49:03;7.53;;;2.25;;
10991;SDS011;5549;47.028;15.514;2024-01-10T13:51:30;1.73;;;0.43;;
10991;SDS011;5549;47.028;15.514;2024-01-10T13:53:59;5.25;;;2.10;;
10991;SDS011;5549;47.028;15.514;2024-01-10T13:56:28;5.75;;;2.25;;
10991;SDS011;5549;47.028;15.514;2024-01-10T13:59:00;3.20;;;1.23;;
10991;SDS011;5549;47.028;15.514;2024-01-10T14:01:28;1.90;;;0.77;;
10991;SDS011;5549;47.028;15.514;2024-01-10T14:03:56;5.97;;;1.85;;
10991;SDS011;5549;47.028;15.514;2024-01-10T14:06:23;3.80;;;1.42;;
10991;SDS011;5549;47.028;15.514;2024-01-10T14:08:51;5.45;;;2.00;;
10991;SDS011;5549;47.028;15.514;2024-01-10T14:11:22;5.07;;;1.33;;
10991;SDS011;5549;47.028;15.514;2024-01-10T14:13:52;7.40;;;2.00;;
10991;SDS011;5549;47.028;15.514;2024-01-10T14:16:19;6.80;;;1.80;;
10991;SDS011;5549;47.028;15.514;2024-01-10T14:18:47;4.22;;;1.48;;
10991;SDS011;5549;47.028;15.514;2024-01-10T14:21:14;5.68;;;1.60;;
10991;SDS011;5549;47.028;15.514;2024-01-10T14:23:42;9.75;;;1.90;;
10991;SDS011;5549;47.028;15.514;2024-01-10T14:26:12;5.57;;;2.33;;
10991;SDS011;5549;47.028;15.514;2024-01-10T14:28:42;8.05;;;2.55;;
10991;SDS011;5549;47.028;15.514;2024-01-10T14:31:09;5.30;;;2.03;;
10991;SDS011;5549;47.028;15.514;2024-01-10T14:33:39;5.35;;;2.08;;
10991;SDS011;5549;47.028;15.514;2024-01-10T14:36:06;4.97;;;2.00;;
10991;SDS011;5549;47.028;15.514;2024-01-10T14:38:34;8.45;;;2.15;;
10991;SDS011;5549;47.028;15.514;2024-01-10T14:41:03;8.35;;;3.08;;
10991;SDS011;5549;47.028;15.514;2024-01-10T14:43:31;8.38;;;2.70;;
10991;SDS011;5549;47.028;15.514;2024-01-10T14:46:01;3.65;;;1.65;;
10991;SDS011;5549;47.028;15.514;2024-01-10T14:48:29;6.80;;;2.17;;
10991;SDS011;5549;47.028;15.514;2024-01-10T14:50:59;8.13;;;3.83;;
10991;SDS011;5549;47.028;15.514;2024-01-10T14:53:27;11.30;;;3.13;;
10991;SDS011;5549;47.028;15.514;2024-01-10T14:55:55;9.20;;;3.00;;
10991;SDS011;5549;47.028;15.514;2024-01-10T14:58:22;7.78;;;2.78;;
10991;SDS011;5549;47.028;15.514;2024-01-10T15:00:50;9.05;;;3.25;;
10991;SDS011;5549;47.028;15.514;2024-01-10T15:03:19;6.95;;;2.88;;
10991;SDS011;5549;47.028;15.514;2024-01-10T15:05:47;7.10;;;2.90;;
10991;SDS011;5549;47.028;15.514;2024-01-10T15:08:14;6.60;;;2.22;;
10991;SDS011;5549;47.028;15.514;2024-01-10T15:10:42;6.72;;;2.20;;